createdAt,value
2022-09-26T00:01:06.148Z,58.3
2022-09-26T00:06:30.110Z,58.3
2022-09-26T00:12:06.335Z,58.3
2022-09-26T04:51:11.572Z,55.8
2022-09-26T04:56:49.066Z,55.8
2022-09-26T05:02:25.401Z,55.7
2022-09-26T05:08:07.915Z,55.7
2022-09-26T05:13:53.507Z,55.6
2022-09-26T05:19:16.208Z,55.6
2022-09-26T05:24:54.124Z,55.5
2022-09-26T05:30:16.649Z,55.5
2022-09-26T05:35:43.331Z,55.4
2022-09-26T05:41:22.427Z,55.4
2022-09-26T05:47:00.882Z,55.4
2022-09-26T05:52:39.991Z,55.3
2022-09-26T05:58:02.765Z,55.3
2022-09-26T06:03:43.691Z,55.2
2022-09-26T06:09:20.970Z,55.2
2022-09-26T06:15:03.931Z,55.1
2022-09-26T06:20:45.617Z,55.1
2022-09-26T06:26:22.555Z,55
2022-09-26T06:32:01.358Z,54.9
2022-09-26T06:37:42.297Z,54.9
2022-09-26T06:43:23.010Z,54.8
2022-09-26T06:48:45.877Z,54.6
2022-09-26T06:54:18.758Z,54.5
2022-09-26T06:59:56.181Z,54.4
2022-09-26T07:05:25.018Z,54.4
2022-09-26T07:12:09.793Z,54.3
2022-09-26T07:17:35.272Z,54.3
2022-09-26T07:22:57.593Z,54.3
2022-09-26T07:28:04.449Z,54.2
2022-09-26T07:33:28.528Z,54.1
2022-09-26T07:38:55.990Z,54.1
2022-09-26T07:46:11.361Z,54
2022-09-26T07:51:24.922Z,53.9
2022-09-26T07:56:46.971Z,53.9
2022-09-26T08:02:09.912Z,53.9
2022-09-26T08:07:35.271Z,53.8
2022-09-26T08:13:00.602Z,53.8
2022-09-26T08:18:23.266Z,53.8
2022-09-26T08:23:45.645Z,53.7
2022-09-26T08:29:07.799Z,53.6
2022-09-26T08:34:31.564Z,53.6
2022-09-26T08:39:54.099Z,53.5
2022-09-26T08:45:16.629Z,53.5
2022-09-26T08:50:23.653Z,53.4
2022-09-26T08:55:45.271Z,53.4
2022-09-26T14:27:24.738Z,57.3
2022-09-26T14:32:32.836Z,57.2
2022-09-26T14:37:58.364Z,57.1
2022-09-26T14:43:21.134Z,57.1
2022-09-26T14:48:28.619Z,57.1
2022-09-26T14:53:50.871Z,57.1
2022-09-26T14:59:17.588Z,57
2022-09-26T15:04:25.576Z,57
2022-09-26T15:09:47.883Z,56.9
2022-09-26T15:15:10.363Z,56.9
2022-09-26T15:20:33.338Z,56.9
2022-09-26T15:25:54.319Z,56.8
2022-09-26T15:31:17.321Z,56.8
2022-09-26T15:36:41.489Z,56.8
2022-09-26T15:42:04.298Z,56.8
2022-09-26T15:47:17.064Z,56.7
2022-09-26T15:52:39.725Z,56.7
2022-09-26T15:58:20.512Z,56.6
2022-09-26T16:03:43.551Z,56.6
2022-09-26T16:09:25.995Z,56.6
2022-09-26T16:15:06.139Z,56.5
2022-09-26T16:20:44.116Z,56.5
2022-09-26T16:26:28.525Z,56.4
2022-09-26T16:32:06.624Z,56.4
2022-09-26T16:37:44.367Z,56.4
2022-09-26T16:43:18.984Z,56.3
2022-09-26T16:49:03.791Z,56.3
2022-09-26T16:54:47.409Z,56.3
2022-09-26T17:00:24.859Z,56.2
2022-09-26T17:06:03.286Z,56.2
2022-09-26T17:11:41.049Z,56.1
2022-09-26T17:17:19.432Z,56.1
2022-09-26T17:22:56.750Z,56.1
2022-09-26T17:29:05.192Z,56
2022-09-26T17:34:43.859Z,56
2022-09-26T17:40:21.660Z,55.9
2022-09-26T17:45:59.652Z,55.9
2022-09-26T17:51:23.349Z,55.9
2022-09-26T17:56:29.900Z,55.8
2022-09-26T18:01:57.786Z,55.8
2022-09-26T18:07:36.405Z,55.8
2022-09-26T18:13:14.367Z,55.7
2022-09-26T18:18:52.909Z,55.7
2022-09-26T18:24:35.854Z,55.6
2022-09-26T18:29:57.728Z,55.6
